Beldenville, Wisconsin
Current Conditions -  °F | °C
As of 10:11 PM on Thursday 27 Nov 2014 (Local Time) from KRGK Reporting Station
Overcast Overcast  
Wind Chill:   Ceiling: 7000
Heat Index: 10°   Visibility: 10mi
Dew Point:   Wind: 5mph
Humidity: 62%   Direction: 150°SSE
Pressure: 30.32"   Gusts: NA
Location:  44.77°N, 92.51°W
Report Text: KRGK 280411Z AUTO 15004KT 10SM SCT060 BKN070 OVC090 M12/M18 A3032 RMK AO2
Loading
Personal Weather Stations






























Interactive Weather Map New forecast layout! Learn more

10-Day Weather Forecast

Advertisements
Track Severe Weather on mobile